sensor_id;sensor_type;location;lat;lon;timestamp;P1;durP1;ratioP1;P2;durP2;ratioP2
15474;SDS011;7839;50.462;9.678;2023-02-28T00:01:22;0.70;;;0.40;;
15474;SDS011;7839;50.462;9.678;2023-02-28T00:08:02;0.20;;;0.20;;
15474;SDS011;7839;50.462;9.678;2023-02-28T00:14:43;0.30;;;0.30;;
15474;SDS011;7839;50.462;9.678;2023-02-28T00:21:24;1.03;;;0.40;;
15474;SDS011;7839;50.462;9.678;2023-02-28T00:28:04;1.77;;;1.00;;
15474;SDS011;7839;50.462;9.678;2023-02-28T00:34:46;1.37;;;1.27;;
15474;SDS011;7839;50.462;9.678;2023-02-28T00:41:26;1.70;;;1.60;;
15474;SDS011;7839;50.462;9.678;2023-02-28T00:48:07;1.67;;;1.33;;
15474;SDS011;7839;50.462;9.678;2023-02-28T00:54:47;1.20;;;1.20;;
15474;SDS011;7839;50.462;9.678;2023-02-28T01:01:28;1.33;;;0.90;;
15474;SDS011;7839;50.462;9.678;2023-02-28T01:08:08;0.90;;;0.90;;
15474;SDS011;7839;50.462;9.678;2023-02-28T01:14:48;1.37;;;1.20;;
15474;SDS011;7839;50.462;9.678;2023-02-28T01:21:28;0.43;;;0.43;;
15474;SDS011;7839;50.462;9.678;2023-02-28T01:28:10;0.43;;;0.43;;
15474;SDS011;7839;50.462;9.678;2023-02-28T01:34:50;0.47;;;0.47;;
15474;SDS011;7839;50.462;9.678;2023-02-28T01:41:32;0.57;;;0.57;;
15474;SDS011;7839;50.462;9.678;2023-02-28T01:48:13;1.33;;;0.73;;
15474;SDS011;7839;50.462;9.678;2023-02-28T01:54:54;1.80;;;1.30;;
15474;SDS011;7839;50.462;9.678;2023-02-28T02:01:35;1.77;;;1.67;;
15474;SDS011;7839;50.462;9.678;2023-02-28T02:08:21;0.85;;;0.50;;
15474;SDS011;7839;50.462;9.678;2023-02-28T02:15:16;0.50;;;0.50;;
15474;SDS011;7839;50.462;9.678;2023-02-28T02:36:45;0.87;;;0.80;;
15474;SDS011;7839;50.462;9.678;2023-02-28T02:49:59;0.20;;;0.20;;
15474;SDS011;7839;50.462;9.678;2023-02-28T02:56:41;0.87;;;0.40;;
15474;SDS011;7839;50.462;9.678;2023-02-28T03:03:23;0.30;;;0.30;;
15474;SDS011;7839;50.462;9.678;2023-02-28T03:31:03;0.00;;;0.00;;
15474;SDS011;7839;50.462;9.678;2023-02-28T03:37:50;0.33;;;0.30;;
15474;SDS011;7839;50.462;9.678;2023-02-28T03:44:32;1.53;;;1.40;;
15474;SDS011;7839;50.462;9.678;2023-02-28T03:51:16;0.40;;;0.40;;
15474;SDS011;7839;50.462;9.678;2023-02-28T03:58:05;0.10;;;0.10;;
15474;SDS011;7839;50.462;9.678;2023-02-28T04:04:48;0.20;;;0.20;;
15474;SDS011;7839;50.462;9.678;2023-02-28T04:11:39;0.10;;;0.10;;
15474;SDS011;7839;50.462;9.678;2023-02-28T04:18:20;0.20;;;0.20;;
15474;SDS011;7839;50.462;9.678;2023-02-28T04:25:00;0.30;;;0.30;;
15474;SDS011;7839;50.462;9.678;2023-02-28T04:31:40;0.27;;;0.27;;
15474;SDS011;7839;50.462;9.678;2023-02-28T04:38:24;0.23;;;0.23;;
15474;SDS011;7839;50.462;9.678;2023-02-28T04:45:05;0.53;;;0.50;;
15474;SDS011;7839;50.462;9.678;2023-02-28T04:51:46;0.30;;;0.30;;
15474;SDS011;7839;50.462;9.678;2023-02-28T04:58:26;0.77;;;0.50;;
15474;SDS011;7839;50.462;9.678;2023-02-28T05:05:08;2.97;;;1.70;;
15474;SDS011;7839;50.462;9.678;2023-02-28T05:11:48;0.40;;;0.40;;
15474;SDS011;7839;50.462;9.678;2023-02-28T05:18:28;0.57;;;0.53;;
15474;SDS011;7839;50.462;9.678;2023-02-28T05:25:12;0.60;;;0.60;;
15474;SDS011;7839;50.462;9.678;2023-02-28T05:31:53;1.40;;;1.30;;
15474;SDS011;7839;50.462;9.678;2023-02-28T05:38:34;3.37;;;2.27;;
15474;SDS011;7839;50.462;9.678;2023-02-28T05:45:15;0.40;;;0.40;;
15474;SDS011;7839;50.462;9.678;2023-02-28T05:51:55;0.40;;;0.40;;
15474;SDS011;7839;50.462;9.678;2023-02-28T05:58:35;0.70;;;0.70;;
15474;SDS011;7839;50.462;9.678;2023-02-28T06:05:16;1.50;;;1.30;;
15474;SDS011;7839;50.462;9.678;2023-02-28T06:11:58;2.20;;;2.10;;
15474;SDS011;7839;50.462;9.678;2023-02-28T06:18:38;0.53;;;0.53;;
15474;SDS011;7839;50.462;9.678;2023-02-28T06:25:19;1.00;;;0.40;;
15474;SDS011;7839;50.462;9.678;2023-02-28T06:31:59;0.80;;;0.80;;
15474;SDS011;7839;50.462;9.678;2023-02-28T06:38:41;0.60;;;0.60;;
15474;SDS011;7839;50.462;9.678;2023-02-28T06:45:22;0.60;;;0.50;;
15474;SDS011;7839;50.462;9.678;2023-02-28T06:52:02;0.60;;;0.60;;
15474;SDS011;7839;50.462;9.678;2023-02-28T06:58:45;0.80;;;0.60;;
15474;SDS011;7839;50.462;9.678;2023-02-28T07:05:26;0.40;;;0.40;;
15474;SDS011;7839;50.462;9.678;2023-02-28T07:12:06;0.60;;;0.40;;
15474;SDS011;7839;50.462;9.678;2023-02-28T07:18:48;0.20;;;0.20;;
15474;SDS011;7839;50.462;9.678;2023-02-28T07:25:28;0.80;;;0.43;;
15474;SDS011;7839;50.462;9.678;2023-02-28T07:32:09;0.30;;;0.30;;
15474;SDS011;7839;50.462;9.678;2023-02-28T07:38:49;0.40;;;0.40;;
15474;SDS011;7839;50.462;9.678;2023-02-28T07:45:33;2.43;;;2.23;;
15474;SDS011;7839;50.462;9.678;2023-02-28T07:52:14;0.30;;;0.30;;
15474;SDS011;7839;50.462;9.678;2023-02-28T07:58:54;3.10;;;2.53;;
15474;SDS011;7839;50.462;9.678;2023-02-28T08:05:37;0.90;;;0.90;;
15474;SDS011;7839;50.462;9.678;2023-02-28T08:12:18;3.23;;;2.93;;
15474;SDS011;7839;50.462;9.678;2023-02-28T08:18:58;13.00;;;7.53;;
15474;SDS011;7839;50.462;9.678;2023-02-28T08:25:38;11.60;;;8.27;;
15474;SDS011;7839;50.462;9.678;2023-02-28T08:32:18;1.70;;;1.57;;
15474;SDS011;7839;50.462;9.678;2023-02-28T08:38:59;5.63;;;4.10;;
15474;SDS011;7839;50.462;9.678;2023-02-28T08:45:39;4.93;;;4.07;;
15474;SDS011;7839;50.462;9.678;2023-02-28T08:52:20;2.93;;;2.13;;
15474;SDS011;7839;50.462;9.678;2023-02-28T08:59:00;3.27;;;2.90;;
15474;SDS011;7839;50.462;9.678;2023-02-28T09:05:40;3.13;;;2.83;;
15474;SDS011;7839;50.462;9.678;2023-02-28T09:12:21;3.50;;;2.67;;
15474;SDS011;7839;50.462;9.678;2023-02-28T09:19:02;4.13;;;3.73;;
15474;SDS011;7839;50.462;9.678;2023-02-28T09:25:49;2.67;;;2.47;;
15474;SDS011;7839;50.462;9.678;2023-02-28T09:32:32;2.10;;;1.90;;
15474;SDS011;7839;50.462;9.678;2023-02-28T09:39:12;3.73;;;3.43;;
15474;SDS011;7839;50.462;9.678;2023-02-28T09:45:57;1.77;;;1.67;;
15474;SDS011;7839;50.462;9.678;2023-02-28T09:52:40;4.00;;;3.60;;
15474;SDS011;7839;50.462;9.678;2023-02-28T10:06:07;2.90;;;2.53;;
15474;SDS011;7839;50.462;9.678;2023-02-28T10:12:48;2.20;;;2.00;;
15474;SDS011;7839;50.462;9.678;2023-02-28T10:26:30;1.83;;;1.73;;
15474;SDS011;7839;50.462;9.678;2023-02-28T10:33:16;3.20;;;2.93;;
15474;SDS011;7839;50.462;9.678;2023-02-28T10:39:58;4.73;;;3.80;;
15474;SDS011;7839;50.462;9.678;2023-02-28T10:46:40;3.17;;;2.63;;
15474;SDS011;7839;50.462;9.678;2023-02-28T11:00:15;3.07;;;2.80;;
15474;SDS011;7839;50.462;9.678;2023-02-28T11:13:39;4.20;;;3.80;;
15474;SDS011;7839;50.462;9.678;2023-02-28T11:20:23;2.77;;;2.57;;
15474;SDS011;7839;50.462;9.678;2023-02-28T11:27:04;3.97;;;3.53;;
15474;SDS011;7839;50.462;9.678;2023-02-28T11:33:52;4.60;;;4.07;;
15474;SDS011;7839;50.462;9.678;2023-02-28T11:48:01;5.70;;;4.10;;
15474;SDS011;7839;50.462;9.678;2023-02-28T11:54:21;5.40;;;4.17;;
15474;SDS011;7839;50.462;9.678;2023-02-28T12:01:07;4.33;;;3.93;;
15474;SDS011;7839;50.462;9.678;2023-02-28T12:07:59;4.20;;;3.80;;
15474;SDS011;7839;50.462;9.678;2023-02-28T12:28:14;4.23;;;3.47;;
15474;SDS011;7839;50.462;9.678;2023-02-28T12:34:57;3.57;;;3.27;;
15474;SDS011;7839;50.462;9.678;2023-02-28T12:41:42;4.43;;;4.00;;
15474;SDS011;7839;50.462;9.678;2023-02-28T12:48:29;3.50;;;3.20;;
15474;SDS011;7839;50.462;9.678;2023-02-28T13:09:24;3.97;;;3.53;;
15474;SDS011;7839;50.462;9.678;2023-02-28T13:22:47;3.57;;;3.23;;
15474;SDS011;7839;50.462;9.678;2023-02-28T13:29:29;4.47;;;3.20;;
15474;SDS011;7839;50.462;9.678;2023-02-28T13:42:53;5.93;;;4.17;;
15474;SDS011;7839;50.462;9.678;2023-02-28T13:49:34;3.70;;;3.40;;
15474;SDS011;7839;50.462;9.678;2023-02-28T14:03:10;3.67;;;2.90;;
15474;SDS011;7839;50.462;9.678;2023-02-28T14:09:56;2.47;;;2.27;;
15474;SDS011;7839;50.462;9.678;2023-02-28T14:16:44;4.50;;;4.10;;
15474;SDS011;7839;50.462;9.678;2023-02-28T14:23:35;4.13;;;3.40;;
15474;SDS011;7839;50.462;9.678;2023-02-28T14:37:20;3.97;;;3.60;;
15474;SDS011;7839;50.462;9.678;2023-02-28T14:44:03;4.03;;;3.47;;
15474;SDS011;7839;50.462;9.678;2023-02-28T14:50:56;3.53;;;3.23;;
15474;SDS011;7839;50.462;9.678;2023-02-28T14:57:40;3.37;;;3.00;;
15474;SDS011;7839;50.462;9.678;2023-02-28T15:04:25;5.00;;;4.10;;
15474;SDS011;7839;50.462;9.678;2023-02-28T15:11:17;4.57;;;4.17;;
15474;SDS011;7839;50.462;9.678;2023-02-28T15:18:03;4.63;;;3.73;;
15474;SDS011;7839;50.462;9.678;2023-02-28T15:24:45;5.00;;;3.67;;
15474;SDS011;7839;50.462;9.678;2023-02-28T15:31:34;3.37;;;3.03;;
15474;SDS011;7839;50.462;9.678;2023-02-28T15:44:55;4.77;;;3.80;;
15474;SDS011;7839;50.462;9.678;2023-02-28T15:51:37;3.07;;;2.77;;
15474;SDS011;7839;50.462;9.678;2023-02-28T15:58:18;5.23;;;4.07;;
15474;SDS011;7839;50.462;9.678;2023-02-28T16:05:00;4.43;;;4.00;;
15474;SDS011;7839;50.462;9.678;2023-02-28T16:11:42;5.97;;;4.40;;
15474;SDS011;7839;50.462;9.678;2023-02-28T16:18:23;4.13;;;3.63;;
15474;SDS011;7839;50.462;9.678;2023-02-28T16:25:04;4.93;;;3.97;;
15474;SDS011;7839;50.462;9.678;2023-02-28T16:31:47;4.37;;;3.97;;
15474;SDS011;7839;50.462;9.678;2023-02-28T16:38:28;5.10;;;4.10;;
15474;SDS011;7839;50.462;9.678;2023-02-28T16:45:16;3.03;;;2.73;;
15474;SDS011;7839;50.462;9.678;2023-02-28T16:51:57;6.87;;;4.80;;
15474;SDS011;7839;50.462;9.678;2023-02-28T16:58:37;4.67;;;4.17;;
15474;SDS011;7839;50.462;9.678;2023-02-28T17:05:18;5.70;;;4.80;;
15474;SDS011;7839;50.462;9.678;2023-02-28T17:11:58;5.37;;;4.63;;
15474;SDS011;7839;50.462;9.678;2023-02-28T17:18:39;9.83;;;6.03;;
15474;SDS011;7839;50.462;9.678;2023-02-28T17:25:19;6.37;;;5.77;;
15474;SDS011;7839;50.462;9.678;2023-02-28T17:32:00;7.83;;;4.93;;
15474;SDS011;7839;50.462;9.678;2023-02-28T17:38:40;8.77;;;5.17;;
15474;SDS011;7839;50.462;9.678;2023-02-28T17:45:21;5.37;;;4.67;;
15474;SDS011;7839;50.462;9.678;2023-02-28T17:52:02;9.23;;;5.40;;
15474;SDS011;7839;50.462;9.678;2023-02-28T17:58:42;2.67;;;2.43;;
15474;SDS011;7839;50.462;9.678;2023-02-28T18:05:22;3.37;;;2.80;;
15474;SDS011;7839;50.462;9.678;2023-02-28T18:12:03;3.53;;;3.23;;
15474;SDS011;7839;50.462;9.678;2023-02-28T18:18:43;6.53;;;5.00;;
15474;SDS011;7839;50.462;9.678;2023-02-28T18:25:25;2.30;;;2.10;;
15474;SDS011;7839;50.462;9.678;2023-02-28T18:32:05;2.10;;;2.00;;
15474;SDS011;7839;50.462;9.678;2023-02-28T18:38:49;1.80;;;1.70;;
15474;SDS011;7839;50.462;9.678;2023-02-28T18:45:29;1.60;;;1.50;;
15474;SDS011;7839;50.462;9.678;2023-02-28T18:52:10;2.43;;;1.60;;
15474;SDS011;7839;50.462;9.678;2023-02-28T18:58:51;1.60;;;1.50;;
15474;SDS011;7839;50.462;9.678;2023-02-28T19:05:31;1.40;;;1.30;;
15474;SDS011;7839;50.462;9.678;2023-02-28T19:12:13;1.30;;;1.20;;
15474;SDS011;7839;50.462;9.678;2023-02-28T19:18:56;1.00;;;1.00;;
15474;SDS011;7839;50.462;9.678;2023-02-28T19:25:39;1.10;;;1.10;;
15474;SDS011;7839;50.462;9.678;2023-02-28T19:32:20;1.90;;;1.33;;
15474;SDS011;7839;50.462;9.678;2023-02-28T19:39:00;1.00;;;1.00;;
15474;SDS011;7839;50.462;9.678;2023-02-28T19:45:40;1.00;;;1.00;;
15474;SDS011;7839;50.462;9.678;2023-02-28T19:52:21;1.10;;;1.00;;
15474;SDS011;7839;50.462;9.678;2023-02-28T19:59:01;1.20;;;1.07;;
15474;SDS011;7839;50.462;9.678;2023-02-28T20:05:43;0.77;;;0.70;;
15474;SDS011;7839;50.462;9.678;2023-02-28T20:12:23;0.83;;;0.83;;
15474;SDS011;7839;50.462;9.678;2023-02-28T20:19:05;1.13;;;1.03;;
15474;SDS011;7839;50.462;9.678;2023-02-28T20:25:45;1.00;;;0.90;;
15474;SDS011;7839;50.462;9.678;2023-02-28T20:32:26;2.37;;;0.93;;
15474;SDS011;7839;50.462;9.678;2023-02-28T20:39:06;0.80;;;0.80;;
15474;SDS011;7839;50.462;9.678;2023-02-28T20:45:50;0.80;;;0.80;;
15474;SDS011;7839;50.462;9.678;2023-02-28T20:52:30;1.53;;;1.10;;
15474;SDS011;7839;50.462;9.678;2023-02-28T20:59:12;1.00;;;1.00;;
15474;SDS011;7839;50.462;9.678;2023-02-28T21:05:57;4.40;;;3.93;;
15474;SDS011;7839;50.462;9.678;2023-02-28T21:12:38;1.27;;;1.20;;
15474;SDS011;7839;50.462;9.678;2023-02-28T21:19:19;1.60;;;1.30;;
15474;SDS011;7839;50.462;9.678;2023-02-28T21:26:18;1.20;;;1.10;;
15474;SDS011;7839;50.462;9.678;2023-02-28T21:32:59;1.70;;;1.50;;
15474;SDS011;7839;50.462;9.678;2023-02-28T21:39:40;1.43;;;1.30;;
15474;SDS011;7839;50.462;9.678;2023-02-28T21:46:21;1.10;;;1.10;;
15474;SDS011;7839;50.462;9.678;2023-02-28T21:53:02;1.10;;;1.10;;
15474;SDS011;7839;50.462;9.678;2023-02-28T21:59:42;1.10;;;1.00;;
15474;SDS011;7839;50.462;9.678;2023-02-28T22:06:25;0.90;;;0.90;;
15474;SDS011;7839;50.462;9.678;2023-02-28T22:13:06;1.00;;;1.00;;
15474;SDS011;7839;50.462;9.678;2023-02-28T22:19:47;1.60;;;0.80;;
15474;SDS011;7839;50.462;9.678;2023-02-28T22:26:28;1.10;;;1.00;;
15474;SDS011;7839;50.462;9.678;2023-02-28T22:33:08;0.70;;;0.70;;
15474;SDS011;7839;50.462;9.678;2023-02-28T22:39:48;0.73;;;0.73;;
15474;SDS011;7839;50.462;9.678;2023-02-28T22:46:29;0.73;;;0.73;;
15474;SDS011;7839;50.462;9.678;2023-02-28T22:53:10;0.90;;;0.90;;
15474;SDS011;7839;50.462;9.678;2023-02-28T22:59:51;0.70;;;0.70;;
15474;SDS011;7839;50.462;9.678;2023-02-28T23:06:32;1.10;;;1.00;;
15474;SDS011;7839;50.462;9.678;2023-02-28T23:13:13;1.00;;;1.00;;
15474;SDS011;7839;50.462;9.678;2023-02-28T23:19:53;0.70;;;0.70;;
15474;SDS011;7839;50.462;9.678;2023-02-28T23:26:33;0.80;;;0.80;;
15474;SDS011;7839;50.462;9.678;2023-02-28T23:33:15;0.93;;;0.60;;
15474;SDS011;7839;50.462;9.678;2023-02-28T23:39:56;0.77;;;0.77;;
15474;SDS011;7839;50.462;9.678;2023-02-28T23:46:36;0.80;;;0.80;;
15474;SDS011;7839;50.462;9.678;2023-02-28T23:53:16;5.03;;;4.60;;
15474;SDS011;7839;50.462;9.678;2023-02-28T23:59:56;5.70;;;5.10;;
